createdAt,value
2023-04-29T00:02:21.464Z,103569.44
2023-04-29T00:04:50.040Z,103053.06
2023-04-29T00:07:18.606Z,102278.66
2023-04-29T00:09:47.009Z,102278.66
2023-04-29T00:12:15.454Z,101762.47
2023-04-29T00:14:43.956Z,102020.53
2023-04-29T00:17:13.874Z,102020.53
2023-04-29T00:19:43.029Z,101246.34
2023-04-29T00:22:11.513Z,102020.53
2023-04-29T00:24:40.356Z,101246.34
2023-04-29T00:27:09.229Z,100472.31
2023-04-29T00:29:37.575Z,101246.34
2023-04-29T00:32:06.762Z,100988.31
2023-04-29T00:34:36.772Z,100988.31
2023-04-29T00:37:05.277Z,101762.47
2023-04-29T00:39:33.981Z,101246.34
2023-04-29T00:42:03.602Z,101246.34
2023-04-29T00:44:32.388Z,101504.38
2023-04-29T00:47:01.217Z,101246.34
2023-04-29T00:49:30.093Z,100214.34
2023-04-29T00:52:00.861Z,99956.41
2023-04-29T00:54:29.415Z,99698.47
2023-04-29T00:56:59.615Z,99182.69
2023-04-29T00:59:48.813Z,98666.94
2023-04-29T01:02:31.442Z,99182.69
2023-04-29T01:05:00.321Z,98924.81
2023-04-29T01:07:36.291Z,98924.81
2023-04-29T01:10:08.427Z,99440.56
2023-04-29T01:12:46.820Z,99956.41
2023-04-29T01:15:23.755Z,100472.31
2023-04-29T01:18:01.299Z,100214.34
2023-04-29T01:20:31.359Z,100472.31
2023-04-29T01:23:02.481Z,100214.34
2023-04-29T01:25:32.666Z,100214.34
2023-04-29T01:28:44.704Z,98924.81
2023-04-29T01:31:21.497Z,98924.81
2023-04-29T01:34:01.020Z,98409.13
2023-04-29T01:36:39.800Z,97635.72
2023-04-29T01:39:15.936Z,97377.97
2023-04-29T01:41:59.043Z,97120.22
2023-04-29T01:44:33.579Z,96089.47
2023-04-29T01:47:03.367Z,96862.50
2023-04-29T01:49:38.419Z,97377.97
2023-04-29T01:52:07.655Z,96347.13
2023-04-29T01:54:38.500Z,96862.50
2023-04-29T01:57:09.460Z,97377.97
2023-04-29T01:59:58.548Z,96862.50
2023-04-29T02:02:33.109Z,97377.97
2023-04-29T02:05:11.850Z,96862.50
2023-04-29T02:07:46.152Z,97635.72
2023-04-29T02:10:14.988Z,96347.13
2023-04-29T02:12:46.967Z,97377.97
2023-04-29T02:15:16.089Z,97377.97
2023-04-29T02:17:46.679Z,96604.81
2023-04-29T02:20:15.767Z,95831.81
2023-04-29T02:22:44.265Z,96089.47
2023-04-29T02:25:13.004Z,96347.13
2023-04-29T02:27:41.437Z,96347.13
2023-04-29T02:30:12.047Z,96089.47
2023-04-29T02:32:42.140Z,95574.19
2023-04-29T02:35:11.109Z,96089.47
2023-04-29T02:37:39.664Z,96347.13
2023-04-29T02:40:09.341Z,96862.50
2023-04-29T02:42:38.012Z,97120.22
2023-04-29T02:45:07.703Z,97120.22
2023-04-29T02:47:38.008Z,97635.72
2023-04-29T02:50:07.471Z,97893.50
2023-04-29T02:52:36.206Z,98151.31
2023-04-29T02:55:04.885Z,98666.94
2023-04-29T02:57:34.211Z,99182.69
2023-04-29T03:00:04.635Z,99698.47
2023-04-29T03:02:33.478Z,100730.31
2023-04-29T03:05:03.963Z,100472.31
2023-04-29T03:07:32.749Z,101246.34
2023-04-29T03:10:05.233Z,101504.38
2023-04-29T03:12:34.810Z,101504.38
2023-04-29T03:15:04.503Z,101762.47
2023-04-29T03:17:33.209Z,102536.75
2023-04-29T03:20:01.759Z,103569.44
2023-04-29T03:22:32.050Z,103827.66
2023-04-29T03:25:00.626Z,104602.44
2023-04-29T03:27:29.201Z,104860.72
2023-04-29T03:29:57.651Z,105119.03
2023-04-29T03:32:26.114Z,105635.72
2023-04-29T03:34:55.067Z,106152.47
2023-04-29T03:37:48.047Z,106152.47
2023-04-29T03:40:24.292Z,106410.88
2023-04-29T03:42:53.089Z,106669.31
2023-04-29T03:45:22.146Z,107444.69
2023-04-29T03:47:50.724Z,107703.22
2023-04-29T03:50:19.740Z,107444.69
2023-04-29T03:52:51.004Z,107444.69
2023-04-29T03:55:20.892Z,107703.22
2023-04-29T03:57:50.031Z,107961.72
2023-04-29T04:00:20.140Z,107961.72
2023-04-29T04:02:54.446Z,108220.28
2023-04-29T04:05:25.408Z,108220.28
2023-04-29T04:08:03.218Z,108220.28
2023-04-29T04:10:51.160Z,108478.84
2023-04-29T04:13:32.862Z,108478.84
2023-04-29T04:16:02.052Z,108737.41
2023-04-29T04:18:31.886Z,108478.84
2023-04-29T04:21:06.986Z,108737.41
2023-04-29T04:23:40.349Z,108996.00
2023-04-29T04:26:10.040Z,108996.00
2023-04-29T04:29:01.281Z,108737.41
2023-04-29T04:31:56.090Z,108737.41
2023-04-29T04:34:26.488Z,108478.84
2023-04-29T04:36:57.340Z,108737.41
2023-04-29T04:39:27.299Z,108737.41
2023-04-29T04:41:58.494Z,108737.41
2023-04-29T04:44:28.895Z,108737.41
2023-04-29T04:47:06.778Z,108996.00
2023-04-29T04:49:54.279Z,108996.00
2023-04-29T04:52:23.969Z,108737.41
2023-04-29T04:55:07.702Z,108737.41
2023-04-29T04:57:38.146Z,108737.41
2023-04-29T05:00:08.114Z,108737.41
2023-04-29T05:02:37.094Z,108996.00
2023-04-29T05:05:06.143Z,108737.41
2023-04-29T05:07:37.420Z,108478.84
2023-04-29T05:10:09.581Z,108478.84
2023-04-29T05:12:45.914Z,108478.84
2023-04-29T05:15:15.184Z,108220.28
2023-04-29T05:17:45.385Z,107961.72
2023-04-29T05:20:14.196Z,108220.28
2023-04-29T05:22:42.724Z,108220.28
2023-04-29T05:25:13.116Z,108478.84
2023-04-29T05:27:41.726Z,107961.72
2023-04-29T05:30:14.510Z,107444.69
2023-04-29T05:32:43.053Z,107961.72
2023-04-29T05:35:15.988Z,107961.72
2023-04-29T05:37:45.718Z,107961.72
2023-04-29T05:40:34.544Z,107703.22
2023-04-29T05:43:21.620Z,107444.69
2023-04-29T05:45:50.387Z,107444.69
2023-04-29T05:48:18.808Z,107703.22
2023-04-29T05:50:48.333Z,107444.69
2023-04-29T05:53:16.908Z,106927.75
2023-04-29T05:55:48.692Z,106927.75
2023-04-29T05:58:18.585Z,105894.09
2023-04-29T06:00:49.447Z,105635.72
2023-04-29T06:03:22.923Z,105894.09
2023-04-29T06:06:15.768Z,105377.34
2023-04-29T06:09:04.030Z,105635.72
2023-04-29T06:11:36.507Z,105377.34
2023-04-29T06:14:04.924Z,105119.03
2023-04-29T06:16:34.426Z,105377.34
2023-04-29T06:19:03.036Z,104602.44
2023-04-29T06:21:32.062Z,104344.16
2023-04-29T06:24:02.085Z,104344.16
2023-04-29T06:26:30.573Z,104602.44
2023-04-29T06:29:00.646Z,103827.66
2023-04-29T06:31:29.582Z,103827.66
2023-04-29T06:34:02.738Z,103311.25
2023-04-29T06:36:32.574Z,103569.44
2023-04-29T06:39:03.571Z,103569.44
2023-04-29T06:41:59.803Z,103311.25
2023-04-29T06:44:55.894Z,103053.06
2023-04-29T06:47:39.877Z,102278.66
2023-04-29T06:50:13.105Z,102794.91
2023-04-29T06:52:41.707Z,102536.75
2023-04-29T06:55:12.626Z,102794.91
2023-04-29T06:57:43.823Z,102278.66
2023-04-29T07:00:16.022Z,102278.66
2023-04-29T07:02:44.773Z,103311.25
2023-04-29T07:05:14.079Z,103053.06
2023-04-29T07:07:45.017Z,101762.47
2023-04-29T07:10:13.622Z,101762.47
2023-04-29T07:12:42.177Z,100988.31
2023-04-29T07:15:11.534Z,98666.94
2023-04-29T07:17:41.936Z,99182.69
2023-04-29T07:20:12.028Z,98924.81
2023-04-29T07:22:40.622Z,98924.81
2023-04-29T07:25:11.485Z,97120.22
2023-04-29T07:30:22.907Z,96089.47
2023-04-29T07:32:52.851Z,93256.44
2023-04-29T07:35:22.767Z,94028.84
2023-04-29T07:37:51.550Z,92226.81
2023-04-29T07:40:20.043Z,90940.22
2023-04-29T07:42:49.862Z,92226.81
2023-04-29T07:45:19.169Z,89654.13
2023-04-29T07:47:48.020Z,89911.31
2023-04-29T07:50:18.535Z,89396.97
2023-04-29T07:52:47.164Z,83487.44
2023-04-29T07:55:18.615Z,84514.44
2023-04-29T07:57:47.118Z,82460.72
2023-04-29T08:00:16.293Z,81434.31
2023-04-29T08:02:44.962Z,72466.34
2023-04-29T08:05:23.774Z,70212.03
2023-04-29T08:07:53.231Z,63290.50
2023-04-29T08:10:23.367Z,62078.50
2023-04-29T08:12:51.934Z,60364.84
2023-04-29T08:15:20.515Z,62871.84
2023-04-29T08:17:49.195Z,61253.44
2023-04-29T08:20:19.543Z,61088.06
2023-04-29T08:22:48.479Z,62471.16
2023-04-29T08:25:17.988Z,59639.81
2023-04-29T08:27:46.659Z,61588.22
2023-04-29T08:30:15.745Z,60508.28
2023-04-29T08:32:44.290Z,59544.22
2023-04-29T08:35:13.109Z,59759.31
2023-04-29T08:37:43.247Z,58329.56
2023-04-29T08:40:12.796Z,58094.63
2023-04-29T08:42:41.243Z,57784.09
2023-04-29T08:45:10.603Z,58658.06
2023-04-29T08:47:41.754Z,58815.38
2023-04-29T08:50:10.874Z,58437.06
2023-04-29T08:52:39.424Z,57776.13
2023-04-29T08:55:10.630Z,58341.50
2023-04-29T08:57:40.755Z,58831.28
2023-04-29T09:00:11.218Z,58237.97
2023-04-29T09:02:46.644Z,57017.81
2023-04-29T09:05:15.431Z,57804.00
2023-04-29T09:07:45.774Z,58190.19
2023-04-29T09:10:17.361Z,57849.78
2023-04-29T09:12:46.286Z,57792.06
2023-04-29T09:15:14.944Z,58190.19
2023-04-29T09:17:45.018Z,58504.75
2023-04-29T09:20:30.461Z,58476.88
2023-04-29T09:23:01.922Z,58275.81
2023-04-29T09:25:32.324Z,57766.19
2023-04-29T09:28:15.912Z,58287.75
2023-04-29T09:30:48.248Z,57583.06
2023-04-29T09:33:20.813Z,56876.50
2023-04-29T09:35:50.621Z,56239.75
2023-04-29T09:38:19.563Z,56512.34
2023-04-29T09:40:59.066Z,56671.53
2023-04-29T09:43:28.487Z,55985.09
2023-04-29T09:45:57.249Z,56291.50
2023-04-29T09:48:34.661Z,56128.34
2023-04-29T09:51:04.661Z,56192.00
2023-04-29T09:53:38.181Z,56001.00
2023-04-29T09:56:09.577Z,55627.00
2023-04-29T09:58:39.091Z,55726.47
2023-04-29T10:01:08.385Z,55678.72
2023-04-29T10:03:39.004Z,55467.84
2023-04-29T10:06:09.161Z,55465.88
2023-04-29T10:08:37.854Z,55457.91
2023-04-29T10:11:07.928Z,55579.25
2023-04-29T10:13:38.795Z,55356.47
2023-04-29T10:16:21.413Z,55392.25
2023-04-29T10:18:55.748Z,55314.69
2023-04-29T10:21:30.119Z,54996.44
2023-04-29T10:24:01.005Z,55113.78
2023-04-29T10:26:32.325Z,55052.13
2023-04-29T10:29:01.571Z,55201.31
2023-04-29T10:31:31.195Z,55089.94
2023-04-29T10:34:02.048Z,55181.41
2023-04-29T10:36:33.141Z,54873.13
2023-04-29T10:39:06.091Z,54668.28
2023-04-29T10:41:39.925Z,54739.88
2023-04-29T10:44:08.934Z,54729.94
2023-04-29T10:46:38.175Z,54604.66
2023-04-29T10:49:07.991Z,54423.69
2023-04-29T10:51:42.273Z,54501.22
2023-04-29T10:54:12.022Z,54562.88
2023-04-29T10:56:44.070Z,54369.97
2023-04-29T10:59:14.847Z,54479.34
2023-04-29T11:01:46.204Z,54397.81
2023-04-29T11:04:15.330Z,54369.97
2023-04-29T11:06:47.516Z,54326.25
2023-04-29T11:09:21.985Z,54320.28
2023-04-29T11:12:00.654Z,54278.50
2023-04-29T11:14:32.722Z,54346.13
2023-04-29T11:17:03.849Z,54238.75
2023-04-29T11:19:34.545Z,54210.91
2023-04-29T11:22:17.851Z,54149.25
2023-04-29T11:24:58.340Z,54010.06
2023-04-29T11:27:31.597Z,53956.38
2023-04-29T11:30:01.991Z,54008.09
2023-04-29T11:32:32.381Z,54027.97
2023-04-29T11:35:11.860Z,53950.44
2023-04-29T11:37:41.694Z,53912.66
2023-04-29T11:40:16.023Z,53853.00
2023-04-29T11:42:48.208Z,53835.09
2023-04-29T11:45:19.884Z,53841.06
2023-04-29T11:47:49.535Z,53868.91
2023-04-29T11:50:20.801Z,53845.03
2023-04-29T11:52:50.129Z,53825.16
2023-04-29T11:55:19.869Z,53769.50
2023-04-29T11:57:51.249Z,53777.44
2023-04-29T12:00:20.190Z,53721.78
2023-04-29T12:02:49.153Z,53660.13
2023-04-29T12:05:19.833Z,53672.06
2023-04-29T12:07:50.800Z,53596.53
2023-04-29T12:10:19.343Z,53592.53
2023-04-29T12:12:49.618Z,53594.53
2023-04-29T12:15:18.417Z,53592.53
2023-04-29T12:17:47.963Z,53602.47
2023-04-29T12:20:16.821Z,53612.44
2023-04-29T12:22:45.377Z,53606.47
2023-04-29T12:25:14.421Z,53616.41
2023-04-29T12:27:43.713Z,53628.31
2023-04-29T12:30:14.009Z,53604.47
2023-04-29T12:32:43.678Z,53638.28
2023-04-29T12:35:19.144Z,53632.31
2023-04-29T12:37:51.820Z,53648.22
2023-04-29T12:40:21.214Z,53654.19
2023-04-29T12:42:50.090Z,53632.31
2023-04-29T12:45:31.257Z,53642.25
2023-04-29T12:48:00.952Z,53658.16
2023-04-29T12:50:33.017Z,53668.09
2023-04-29T12:53:02.688Z,53642.25
2023-04-29T12:55:31.379Z,53634.28
2023-04-29T12:58:01.107Z,53668.09
2023-04-29T13:00:31.284Z,53674.06
2023-04-29T13:03:00.117Z,53652.19
2023-04-29T13:05:29.052Z,53650.19
2023-04-29T13:07:58.049Z,53658.16
2023-04-29T13:10:28.656Z,53689.97
2023-04-29T13:12:57.190Z,53662.13
2023-04-29T13:15:26.333Z,53674.06
2023-04-29T13:17:58.832Z,53682.00
2023-04-29T13:20:27.467Z,53654.19
2023-04-29T13:22:56.267Z,53668.09
2023-04-29T13:25:24.844Z,53697.91
2023-04-29T13:27:53.830Z,53686.00
2023-04-29T13:30:22.494Z,53670.09
2023-04-29T13:32:55.908Z,53695.94
2023-04-29T13:35:29.869Z,53676.03
2023-04-29T13:37:58.471Z,53674.06
2023-04-29T13:40:28.230Z,53656.16
2023-04-29T13:43:05.006Z,53676.03
2023-04-29T13:45:39.520Z,53664.13
2023-04-29T13:48:20.750Z,53650.19
2023-04-29T13:54:10.583Z,53588.56
2023-04-29T13:59:28.538Z,53602.47
2023-04-29T14:04:16.256Z,53562.72
2023-04-29T14:06:46.542Z,53560.72
2023-04-29T14:09:18.802Z,53546.81
2023-04-29T14:11:47.370Z,53558.75
2023-04-29T14:14:16.020Z,53546.81
2023-04-29T14:16:44.617Z,53518.97
2023-04-29T14:19:14.007Z,53536.88
2023-04-29T14:21:42.840Z,53526.94
2023-04-29T14:24:12.701Z,53530.91
2023-04-29T14:26:42.052Z,53511.03
2023-04-29T14:29:10.454Z,53530.91
2023-04-29T14:31:39.240Z,53530.91
2023-04-29T14:34:07.855Z,53530.91
2023-04-29T14:36:38.807Z,53499.09
2023-04-29T14:39:07.348Z,53526.94
2023-04-29T14:41:37.287Z,53503.06
2023-04-29T14:44:05.835Z,53495.13
2023-04-29T14:46:36.115Z,53491.16
2023-04-29T14:49:06.293Z,53489.16
2023-04-29T14:51:35.560Z,53479.22
2023-04-29T14:54:04.101Z,53507.06
2023-04-29T14:56:32.649Z,53503.06
2023-04-29T14:59:02.563Z,53493.13
2023-04-29T15:01:32.209Z,53479.22
2023-04-29T15:04:01.411Z,53501.09
2023-04-29T15:06:30.134Z,53491.16
2023-04-29T15:08:58.631Z,53513.03
2023-04-29T15:11:27.530Z,53509.03
2023-04-29T15:13:55.986Z,53485.19
2023-04-29T15:16:27.102Z,53463.31
2023-04-29T15:18:55.672Z,53485.19
2023-04-29T15:21:24.132Z,53489.16
2023-04-29T15:23:52.625Z,53467.28
2023-04-29T15:26:22.022Z,53485.19
2023-04-29T15:28:50.957Z,53503.06
2023-04-29T15:31:19.567Z,53467.28
2023-04-29T15:33:49.408Z,53513.03
2023-04-29T15:36:18.109Z,53511.03
2023-04-29T15:38:46.588Z,53499.09
2023-04-29T15:41:15.091Z,53518.97
2023-04-29T15:43:43.584Z,53544.81
2023-04-29T15:46:14.254Z,53538.88
2023-04-29T15:48:43.031Z,53558.75
2023-04-29T15:51:15.138Z,53542.84
2023-04-29T15:53:44.819Z,53544.81
2023-04-29T15:56:13.673Z,53532.91
2023-04-29T15:58:42.205Z,53501.09
2023-04-29T16:01:10.750Z,53518.97
2023-04-29T16:03:39.416Z,53550.78
2023-04-29T16:06:08.324Z,53511.03
2023-04-29T16:08:38.221Z,53532.91
2023-04-29T16:11:06.813Z,53554.78
2023-04-29T16:13:36.467Z,53548.81
2023-04-29T16:16:05.458Z,53526.94
2023-04-29T16:18:34.285Z,53503.06
2023-04-29T16:21:03.037Z,53493.13
2023-04-29T16:23:32.509Z,53511.03
2023-04-29T16:26:03.107Z,53526.94
2023-04-29T16:28:31.602Z,53534.88
2023-04-29T16:31:00.067Z,53517.00
2023-04-29T16:33:29.525Z,53518.97
2023-04-29T16:35:59.721Z,53507.06
2023-04-29T16:38:28.283Z,53515.00
2023-04-29T16:40:56.761Z,53530.91
2023-04-29T16:43:27.167Z,53522.97
2023-04-29T16:45:55.762Z,53526.94
2023-04-29T16:48:24.267Z,53546.81
2023-04-29T16:50:53.210Z,53566.69
2023-04-29T16:53:21.807Z,53550.78
2023-04-29T16:55:51.088Z,53530.91
2023-04-29T16:58:19.524Z,53544.81
2023-04-29T17:00:49.705Z,53546.81
2023-04-29T17:03:18.752Z,53562.72
2023-04-29T17:05:48.745Z,53554.78
2023-04-29T17:08:17.447Z,53530.91
2023-04-29T17:10:46.472Z,53552.78
2023-04-29T17:13:15.330Z,53554.78
2023-04-29T17:15:44.366Z,53538.88
2023-04-29T17:18:14.472Z,53513.03
2023-04-29T17:20:44.558Z,53558.75
2023-04-29T17:23:13.714Z,53556.75
2023-04-29T17:25:42.273Z,53532.91
2023-04-29T17:28:11.286Z,53580.63
2023-04-29T17:30:39.790Z,53564.72
2023-04-29T17:33:09.157Z,53566.69
2023-04-29T17:35:39.169Z,53592.53
2023-04-29T17:38:08.264Z,53594.53
2023-04-29T17:40:36.889Z,53556.75
2023-04-29T17:43:05.383Z,53568.69
2023-04-29T17:45:34.275Z,53558.75
2023-04-29T17:48:03.244Z,53582.59
2023-04-29T17:50:31.776Z,53578.63
2023-04-29T17:53:01.739Z,53610.44
2023-04-29T17:55:33.061Z,53604.47
2023-04-29T17:58:01.570Z,53614.41
2023-04-29T18:00:30.150Z,53614.41
2023-04-29T18:02:58.833Z,53618.38
2023-04-29T18:05:28.113Z,53610.44
2023-04-29T18:07:57.015Z,53600.50
2023-04-29T18:10:27.385Z,53616.41
2023-04-29T18:12:56.271Z,53654.19
2023-04-29T18:15:25.164Z,53656.16
2023-04-29T18:17:54.699Z,53660.13
2023-04-29T18:20:23.729Z,53682.00
2023-04-29T18:22:52.387Z,53699.91
2023-04-29T18:25:21.169Z,53719.78
2023-04-29T18:27:52.727Z,53765.50
2023-04-29T18:30:25.534Z,53811.25
2023-04-29T18:32:54.112Z,53789.38
2023-04-29T18:35:22.811Z,53878.84
2023-04-29T18:37:51.305Z,53849.03
2023-04-29T18:40:20.115Z,53862.94
2023-04-29T18:42:50.636Z,53805.28
2023-04-29T18:45:19.414Z,53860.94
2023-04-29T18:47:47.985Z,53888.78
2023-04-29T18:50:16.639Z,53908.66
2023-04-29T18:52:45.202Z,53934.50
2023-04-29T18:55:13.806Z,53932.53
2023-04-29T18:57:42.406Z,53922.59
2023-04-29T19:00:16.434Z,53930.53
2023-04-29T19:02:44.981Z,53936.50
2023-04-29T19:05:14.218Z,53976.28
2023-04-29T19:07:43.081Z,54031.94
2023-04-29T19:10:12.501Z,54031.94
2023-04-29T19:12:41.455Z,54067.75
2023-04-29T19:15:10.572Z,54085.63
2023-04-29T19:17:40.648Z,54111.47
2023-04-29T19:20:10.341Z,54159.19
2023-04-29T19:22:39.106Z,54167.16
2023-04-29T19:25:08.254Z,54179.09
2023-04-29T19:27:37.140Z,54222.84
2023-04-29T19:30:07.591Z,54268.56
2023-04-29T19:32:36.266Z,54330.22
2023-04-29T19:35:06.898Z,54326.25
2023-04-29T19:37:35.442Z,54360.03
2023-04-29T19:40:04.534Z,54413.72
2023-04-29T19:42:33.015Z,54425.66
2023-04-29T19:45:01.573Z,54477.38
2023-04-29T19:47:30.704Z,54580.78
2023-04-29T19:49:59.124Z,54564.88
2023-04-29T19:52:29.920Z,54600.66
2023-04-29T19:54:58.469Z,54660.31
2023-04-29T19:57:28.442Z,54729.94
2023-04-29T19:59:57.554Z,54849.25
2023-04-29T20:02:26.230Z,54887.06
2023-04-29T20:04:55.253Z,55000.41
2023-04-29T20:07:23.807Z,55054.13
2023-04-29T20:09:54.750Z,55137.66
2023-04-29T20:12:23.465Z,55253.03
2023-04-29T20:14:52.065Z,55320.66
2023-04-29T20:17:20.778Z,55420.13
2023-04-29T20:19:49.289Z,55567.31
2023-04-29T20:22:17.729Z,55563.34
2023-04-29T20:24:46.374Z,55585.22
2023-04-29T20:27:16.386Z,55726.47
2023-04-29T20:29:45.170Z,55758.28
2023-04-29T20:32:13.689Z,55827.91
2023-04-29T20:34:42.241Z,56072.63
2023-04-29T20:37:11.137Z,56140.28
2023-04-29T20:39:39.842Z,56235.78
2023-04-29T20:42:08.504Z,56283.53
2023-04-29T20:44:39.693Z,56361.13
2023-04-29T20:47:08.248Z,56548.16
2023-04-29T20:49:37.168Z,56864.56
2023-04-29T20:52:10.041Z,56788.94
2023-04-29T20:54:39.191Z,56729.25
2023-04-29T20:57:07.709Z,56864.56
2023-04-29T20:59:36.294Z,57200.91
2023-04-29T21:02:06.340Z,57302.41
2023-04-29T21:04:37.130Z,57491.50
2023-04-29T21:07:07.136Z,57760.22
2023-04-29T21:09:36.501Z,58387.28
2023-04-29T21:12:06.110Z,59269.38
2023-04-29T21:14:35.139Z,59408.78
2023-04-29T21:17:05.159Z,59970.44
2023-04-29T21:19:35.836Z,60241.34
2023-04-29T21:22:04.536Z,60570.06
2023-04-29T21:24:33.155Z,60928.66
2023-04-29T21:27:02.763Z,61438.75
2023-04-29T21:29:31.456Z,61883.16
2023-04-29T21:31:59.960Z,62427.28
2023-04-29T21:34:30.037Z,61875.19
2023-04-29T21:36:58.499Z,61743.66
2023-04-29T21:39:27.016Z,61229.53
2023-04-29T21:41:56.316Z,61237.50
2023-04-29T21:44:24.856Z,60779.25
2023-04-29T21:46:53.937Z,60645.75
2023-04-29T21:49:22.654Z,60181.59
2023-04-29T21:51:52.616Z,59619.91
2023-04-29T21:54:21.356Z,59122.03
2023-04-29T21:56:49.881Z,58711.81
2023-04-29T21:59:18.581Z,58110.56
2023-04-29T22:01:59.786Z,57531.31
2023-04-29T22:04:29.114Z,57342.22
2023-04-29T22:06:59.558Z,57210.84
2023-04-29T22:09:28.137Z,56944.19
2023-04-29T22:11:56.819Z,57051.63
2023-04-29T22:14:25.374Z,56910.34
2023-04-29T22:16:53.841Z,56999.91
2023-04-29T22:19:22.439Z,57067.56
2023-04-29T22:21:50.913Z,57083.47
2023-04-29T22:24:21.116Z,57071.53
2023-04-29T22:26:49.662Z,56995.91
2023-04-29T22:29:19.367Z,56987.97
2023-04-29T22:31:48.023Z,56912.34
2023-04-29T22:34:17.994Z,56747.16
2023-04-29T22:36:46.697Z,56792.94
2023-04-29T22:39:15.192Z,56946.16
2023-04-29T22:41:45.209Z,57027.75
2023-04-29T22:44:13.966Z,57310.38
2023-04-29T22:46:42.506Z,57318.34
2023-04-29T22:49:11.505Z,57171.06
2023-04-29T22:51:39.940Z,57190.97
2023-04-29T22:54:09.165Z,57131.25
2023-04-29T22:56:37.766Z,57226.78
2023-04-29T22:59:07.851Z,57192.94
2023-04-29T23:01:36.755Z,57316.34
2023-04-29T23:04:05.634Z,57395.94
2023-04-29T23:06:38.239Z,57314.34
2023-04-29T23:09:06.778Z,57433.78
2023-04-29T23:11:35.789Z,57479.56
2023-04-29T23:14:04.364Z,57521.34
2023-04-29T23:16:36.322Z,57656.69
2023-04-29T23:19:05.037Z,57656.69
2023-04-29T23:21:33.837Z,57640.78
2023-04-29T23:24:02.422Z,57748.25
2023-04-29T23:26:30.866Z,57748.25
2023-04-29T23:28:59.400Z,57644.75
2023-04-29T23:31:27.749Z,57800.03
2023-04-29T23:33:57.673Z,57991.13
2023-04-29T23:36:26.413Z,58126.50
2023-04-29T23:38:54.939Z,58283.75
2023-04-29T23:41:23.274Z,58397.25
2023-04-29T23:43:51.720Z,58451.00
2023-04-29T23:46:20.642Z,58458.97
2023-04-29T23:48:51.470Z,58664.03
2023-04-29T23:51:21.535Z,58628.19
2023-04-29T23:53:50.009Z,58648.13
2023-04-29T23:56:18.610Z,58918.91
2023-04-29T23:58:47.186Z,59066.25
